sensor_id;sensor_type;location;lat;lon;timestamp;temperature;humidity
5218;DHT22;26539;51.064;6.346;2022-12-07T00:01:43;6.00;1.00
5218;DHT22;26539;51.064;6.346;2022-12-07T00:04:12;6.00;1.00
5218;DHT22;26539;51.064;6.346;2022-12-07T00:06:39;6.10;1.00
5218;DHT22;26539;51.064;6.346;2022-12-07T00:09:06;6.10;1.00
5218;DHT22;26539;51.064;6.346;2022-12-07T00:11:32;6.10;1.00
5218;DHT22;26539;51.064;6.346;2022-12-07T00:14:01;6.10;1.00
5218;DHT22;26539;51.064;6.346;2022-12-07T00:16:29;6.10;1.00
5218;DHT22;26539;51.064;6.346;2022-12-07T00:18:56;6.00;1.00
5218;DHT22;26539;51.064;6.346;2022-12-07T00:21:24;6.00;1.00
5218;DHT22;26539;51.064;6.346;2022-12-07T00:23:51;6.00;1.00
5218;DHT22;26539;51.064;6.346;2022-12-07T00:26:18;6.00;1.00
5218;DHT22;26539;51.064;6.346;2022-12-07T00:28:48;6.00;1.00
5218;DHT22;26539;51.064;6.346;2022-12-07T00:31:15;6.00;1.00
5218;DHT22;26539;51.064;6.346;2022-12-07T00:33:41;6.00;1.00
5218;DHT22;26539;51.064;6.346;2022-12-07T00:36:10;6.00;1.00
5218;DHT22;26539;51.064;6.346;2022-12-07T00:38:37;6.00;1.00
5218;DHT22;26539;51.064;6.346;2022-12-07T00:41:07;6.00;1.00
5218;DHT22;26539;51.064;6.346;2022-12-07T00:43:33;6.00;1.00
5218;DHT22;26539;51.064;6.346;2022-12-07T00:45:58;6.00;1.00
5218;DHT22;26539;51.064;6.346;2022-12-07T00:48:25;6.00;1.00
5218;DHT22;26539;51.064;6.346;2022-12-07T00:50:51;6.00;1.00
5218;DHT22;26539;51.064;6.346;2022-12-07T00:53:16;6.00;1.00
5218;DHT22;26539;51.064;6.346;2022-12-07T00:55:43;6.00;1.00
5218;DHT22;26539;51.064;6.346;2022-12-07T00:58:09;6.00;1.00
5218;DHT22;26539;51.064;6.346;2022-12-07T01:00:39;6.00;1.00
5218;DHT22;26539;51.064;6.346;2022-12-07T01:03:06;5.90;1.00
5218;DHT22;26539;51.064;6.346;2022-12-07T01:05:32;6.00;1.00
5218;DHT22;26539;51.064;6.346;2022-12-07T01:07:58;5.90;1.00
5218;DHT22;26539;51.064;6.346;2022-12-07T01:10:23;6.00;1.00
5218;DHT22;26539;51.064;6.346;2022-12-07T01:12:49;6.00;1.00
5218;DHT22;26539;51.064;6.346;2022-12-07T01:15:14;6.00;1.00
5218;DHT22;26539;51.064;6.346;2022-12-07T01:17:40;6.00;1.00
5218;DHT22;26539;51.064;6.346;2022-12-07T01:20:06;6.00;1.00
5218;DHT22;26539;51.064;6.346;2022-12-07T01:22:39;6.00;1.00
5218;DHT22;26539;51.064;6.346;2022-12-07T01:25:06;6.00;1.00
5218;DHT22;26539;51.064;6.346;2022-12-07T01:27:33;6.10;1.00
5218;DHT22;26539;51.064;6.346;2022-12-07T01:29:59;6.10;1.00
5218;DHT22;26539;51.064;6.346;2022-12-07T01:32:25;6.10;1.00
5218;DHT22;26539;51.064;6.346;2022-12-07T01:34:50;6.10;1.00
5218;DHT22;26539;51.064;6.346;2022-12-07T01:37:16;6.10;1.00
5218;DHT22;26539;51.064;6.346;2022-12-07T01:39:41;6.10;1.00
5218;DHT22;26539;51.064;6.346;2022-12-07T01:42:13;6.10;1.00
5218;DHT22;26539;51.064;6.346;2022-12-07T01:47:45;6.20;1.00
5218;DHT22;26539;51.064;6.346;2022-12-07T01:50:12;6.20;1.00
5218;DHT22;26539;51.064;6.346;2022-12-07T01:52:39;6.20;1.00
5218;DHT22;26539;51.064;6.346;2022-12-07T01:55:08;6.10;1.00
5218;DHT22;26539;51.064;6.346;2022-12-07T01:57:36;6.20;1.00
5218;DHT22;26539;51.064;6.346;2022-12-07T02:00:06;6.20;1.00
5218;DHT22;26539;51.064;6.346;2022-12-07T02:02:35;6.20;1.00
5218;DHT22;26539;51.064;6.346;2022-12-07T02:05:04;6.20;1.00
5218;DHT22;26539;51.064;6.346;2022-12-07T02:07:32;6.20;1.00
5218;DHT22;26539;51.064;6.346;2022-12-07T02:10:13;6.20;1.00
5218;DHT22;26539;51.064;6.346;2022-12-07T02:12:39;6.20;1.00
5218;DHT22;26539;51.064;6.346;2022-12-07T02:15:05;6.20;1.00
5218;DHT22;26539;51.064;6.346;2022-12-07T02:17:55;6.10;1.00
5218;DHT22;26539;51.064;6.346;2022-12-07T02:20:30;6.10;1.00
5218;DHT22;26539;51.064;6.346;2022-12-07T02:31:01;6.20;1.00
5218;DHT22;26539;51.064;6.346;2022-12-07T02:33:37;6.20;1.00
5218;DHT22;26539;51.064;6.346;2022-12-07T02:36:17;6.10;1.00
5218;DHT22;26539;51.064;6.346;2022-12-07T02:38:53;6.10;1.00
5218;DHT22;26539;51.064;6.346;2022-12-07T02:41:25;6.10;1.00
5218;DHT22;26539;51.064;6.346;2022-12-07T02:43:54;6.10;1.00
5218;DHT22;26539;51.064;6.346;2022-12-07T02:46:40;6.10;1.00
5218;DHT22;26539;51.064;6.346;2022-12-07T02:49:07;6.10;1.00
5218;DHT22;26539;51.064;6.346;2022-12-07T02:51:38;6.10;1.00
5218;DHT22;26539;51.064;6.346;2022-12-07T02:54:16;6.10;1.00
5218;DHT22;26539;51.064;6.346;2022-12-07T03:02:09;6.00;1.00
5218;DHT22;26539;51.064;6.346;2022-12-07T03:05:09;6.00;1.00
5218;DHT22;26539;51.064;6.346;2022-12-07T03:13:20;6.00;1.00
5218;DHT22;26539;51.064;6.346;2022-12-07T03:18:31;6.00;1.00
5218;DHT22;26539;51.064;6.346;2022-12-07T03:21:02;6.10;1.00
5218;DHT22;26539;51.064;6.346;2022-12-07T03:23:33;6.10;1.00
5218;DHT22;26539;51.064;6.346;2022-12-07T03:26:01;6.10;1.00
5218;DHT22;26539;51.064;6.346;2022-12-07T03:28:33;6.00;1.00
5218;DHT22;26539;51.064;6.346;2022-12-07T03:31:10;6.10;1.00
5218;DHT22;26539;51.064;6.346;2022-12-07T03:36:37;6.10;1.00
5218;DHT22;26539;51.064;6.346;2022-12-07T03:39:40;6.10;1.00
5218;DHT22;26539;51.064;6.346;2022-12-07T03:42:07;6.10;1.00
5218;DHT22;26539;51.064;6.346;2022-12-07T03:44:36;6.00;1.00
5218;DHT22;26539;51.064;6.346;2022-12-07T03:49:42;6.00;1.00
5218;DHT22;26539;51.064;6.346;2022-12-07T03:52:23;6.00;1.00
5218;DHT22;26539;51.064;6.346;2022-12-07T03:57:44;5.90;1.00
5218;DHT22;26539;51.064;6.346;2022-12-07T04:00:12;5.90;1.00
5218;DHT22;26539;51.064;6.346;2022-12-07T04:02:38;5.90;1.00
5218;DHT22;26539;51.064;6.346;2022-12-07T04:05:04;5.90;1.00
5218;DHT22;26539;51.064;6.346;2022-12-07T04:07:30;5.90;1.00
5218;DHT22;26539;51.064;6.346;2022-12-07T04:09:56;5.90;1.00
5218;DHT22;26539;51.064;6.346;2022-12-07T04:12:22;5.90;1.00
5218;DHT22;26539;51.064;6.346;2022-12-07T04:14:47;5.90;1.00
5218;DHT22;26539;51.064;6.346;2022-12-07T04:17:13;5.90;1.00
5218;DHT22;26539;51.064;6.346;2022-12-07T04:19:38;5.90;1.00
5218;DHT22;26539;51.064;6.346;2022-12-07T04:22:05;5.90;1.00
5218;DHT22;26539;51.064;6.346;2022-12-07T04:24:31;5.90;1.00
5218;DHT22;26539;51.064;6.346;2022-12-07T04:26:57;5.90;1.00
5218;DHT22;26539;51.064;6.346;2022-12-07T04:29:23;5.80;1.00
5218;DHT22;26539;51.064;6.346;2022-12-07T04:31:49;5.80;1.00
5218;DHT22;26539;51.064;6.346;2022-12-07T04:34:16;5.80;1.00
5218;DHT22;26539;51.064;6.346;2022-12-07T04:36:42;5.80;1.00
5218;DHT22;26539;51.064;6.346;2022-12-07T04:39:18;5.80;1.00
5218;DHT22;26539;51.064;6.346;2022-12-07T04:41:44;5.80;1.00
5218;DHT22;26539;51.064;6.346;2022-12-07T04:44:09;5.80;1.00
5218;DHT22;26539;51.064;6.346;2022-12-07T04:46:36;5.80;1.00
5218;DHT22;26539;51.064;6.346;2022-12-07T04:49:02;5.80;1.00
5218;DHT22;26539;51.064;6.346;2022-12-07T04:51:28;5.80;1.00
5218;DHT22;26539;51.064;6.346;2022-12-07T04:53:55;5.80;1.00
5218;DHT22;26539;51.064;6.346;2022-12-07T04:56:21;5.80;1.00
5218;DHT22;26539;51.064;6.346;2022-12-07T04:58:48;5.80;1.00
5218;DHT22;26539;51.064;6.346;2022-12-07T05:01:14;5.80;1.00
5218;DHT22;26539;51.064;6.346;2022-12-07T05:03:40;5.80;1.00
5218;DHT22;26539;51.064;6.346;2022-12-07T05:06:06;5.80;1.00
5218;DHT22;26539;51.064;6.346;2022-12-07T05:08:33;5.80;1.00
5218;DHT22;26539;51.064;6.346;2022-12-07T05:10:59;5.80;1.00
5218;DHT22;26539;51.064;6.346;2022-12-07T05:13:25;5.80;1.00
5218;DHT22;26539;51.064;6.346;2022-12-07T05:15:50;5.80;1.00
5218;DHT22;26539;51.064;6.346;2022-12-07T05:18:16;5.80;1.00
5218;DHT22;26539;51.064;6.346;2022-12-07T05:20:42;5.80;1.00
5218;DHT22;26539;51.064;6.346;2022-12-07T05:23:08;5.80;1.00
5218;DHT22;26539;51.064;6.346;2022-12-07T05:25:34;5.80;1.00
5218;DHT22;26539;51.064;6.346;2022-12-07T05:28:00;5.80;1.00
5218;DHT22;26539;51.064;6.346;2022-12-07T05:30:26;5.80;1.00
5218;DHT22;26539;51.064;6.346;2022-12-07T05:32:52;5.90;1.00
5218;DHT22;26539;51.064;6.346;2022-12-07T05:35:18;5.90;1.00
5218;DHT22;26539;51.064;6.346;2022-12-07T05:37:44;5.90;1.00
5218;DHT22;26539;51.064;6.346;2022-12-07T05:40:11;5.90;1.00
5218;DHT22;26539;51.064;6.346;2022-12-07T05:42:37;5.90;1.00
5218;DHT22;26539;51.064;6.346;2022-12-07T05:45:03;5.80;1.00
5218;DHT22;26539;51.064;6.346;2022-12-07T05:47:29;5.80;1.00
5218;DHT22;26539;51.064;6.346;2022-12-07T05:49:55;5.80;1.00
5218;DHT22;26539;51.064;6.346;2022-12-07T05:52:21;5.80;1.00
5218;DHT22;26539;51.064;6.346;2022-12-07T05:54:47;5.80;1.00
5218;DHT22;26539;51.064;6.346;2022-12-07T05:57:13;5.80;1.00
5218;DHT22;26539;51.064;6.346;2022-12-07T05:59:39;5.80;1.00
5218;DHT22;26539;51.064;6.346;2022-12-07T06:02:10;5.80;1.00
5218;DHT22;26539;51.064;6.346;2022-12-07T06:04:39;5.80;1.00
5218;DHT22;26539;51.064;6.346;2022-12-07T06:07:06;5.80;1.00
5218;DHT22;26539;51.064;6.346;2022-12-07T06:09:32;5.80;1.00
5218;DHT22;26539;51.064;6.346;2022-12-07T06:11:58;5.80;1.00
5218;DHT22;26539;51.064;6.346;2022-12-07T06:14:42;5.80;1.00
5218;DHT22;26539;51.064;6.346;2022-12-07T06:17:09;5.80;1.00
5218;DHT22;26539;51.064;6.346;2022-12-07T06:19:34;5.80;1.00
5218;DHT22;26539;51.064;6.346;2022-12-07T06:22:01;5.80;1.00
5218;DHT22;26539;51.064;6.346;2022-12-07T06:24:26;5.80;1.00
5218;DHT22;26539;51.064;6.346;2022-12-07T06:26:52;5.80;1.00
5218;DHT22;26539;51.064;6.346;2022-12-07T06:29:18;5.80;1.00
5218;DHT22;26539;51.064;6.346;2022-12-07T06:31:44;5.70;1.00
5218;DHT22;26539;51.064;6.346;2022-12-07T06:34:12;5.70;1.00
5218;DHT22;26539;51.064;6.346;2022-12-07T06:36:38;5.70;1.00
5218;DHT22;26539;51.064;6.346;2022-12-07T06:39:04;5.70;1.00
5218;DHT22;26539;51.064;6.346;2022-12-07T06:41:30;5.70;1.00
5218;DHT22;26539;51.064;6.346;2022-12-07T06:43:56;5.70;1.00
5218;DHT22;26539;51.064;6.346;2022-12-07T06:46:22;5.70;1.00
5218;DHT22;26539;51.064;6.346;2022-12-07T06:48:48;5.70;1.00
5218;DHT22;26539;51.064;6.346;2022-12-07T06:51:13;5.70;1.00
5218;DHT22;26539;51.064;6.346;2022-12-07T06:53:39;5.70;1.00
5218;DHT22;26539;51.064;6.346;2022-12-07T06:56:05;5.70;1.00
5218;DHT22;26539;51.064;6.346;2022-12-07T06:58:30;5.70;1.00
5218;DHT22;26539;51.064;6.346;2022-12-07T07:00:56;5.60;1.00
5218;DHT22;26539;51.064;6.346;2022-12-07T07:03:22;5.60;1.00
5218;DHT22;26539;51.064;6.346;2022-12-07T07:05:47;5.50;1.00
5218;DHT22;26539;51.064;6.346;2022-12-07T07:08:13;5.50;1.00
5218;DHT22;26539;51.064;6.346;2022-12-07T07:10:39;5.50;1.00
5218;DHT22;26539;51.064;6.346;2022-12-07T07:13:05;5.40;1.00
5218;DHT22;26539;51.064;6.346;2022-12-07T07:15:31;5.40;1.00
5218;DHT22;26539;51.064;6.346;2022-12-07T07:17:57;5.40;1.00
5218;DHT22;26539;51.064;6.346;2022-12-07T07:20:22;5.50;1.00
5218;DHT22;26539;51.064;6.346;2022-12-07T07:22:48;5.50;1.00
5218;DHT22;26539;51.064;6.346;2022-12-07T07:25:14;5.60;1.00
5218;DHT22;26539;51.064;6.346;2022-12-07T07:27:40;5.60;1.00
5218;DHT22;26539;51.064;6.346;2022-12-07T07:30:06;5.60;1.00
5218;DHT22;26539;51.064;6.346;2022-12-07T07:32:33;5.60;1.00
5218;DHT22;26539;51.064;6.346;2022-12-07T07:34:58;5.60;1.00
5218;DHT22;26539;51.064;6.346;2022-12-07T07:37:24;5.60;1.00
5218;DHT22;26539;51.064;6.346;2022-12-07T07:39:49;5.60;1.00
5218;DHT22;26539;51.064;6.346;2022-12-07T07:42:15;5.60;1.00
5218;DHT22;26539;51.064;6.346;2022-12-07T07:44:40;5.60;1.00
5218;DHT22;26539;51.064;6.346;2022-12-07T07:47:06;5.60;1.00
5218;DHT22;26539;51.064;6.346;2022-12-07T07:49:32;5.60;1.00
5218;DHT22;26539;51.064;6.346;2022-12-07T07:51:57;5.70;1.00
5218;DHT22;26539;51.064;6.346;2022-12-07T07:54:23;5.70;1.00
5218;DHT22;26539;51.064;6.346;2022-12-07T07:56:48;5.70;1.00
5218;DHT22;26539;51.064;6.346;2022-12-07T07:59:14;5.80;1.00
5218;DHT22;26539;51.064;6.346;2022-12-07T08:01:40;5.80;1.00
5218;DHT22;26539;51.064;6.346;2022-12-07T08:04:05;5.80;1.00
5218;DHT22;26539;51.064;6.346;2022-12-07T08:06:31;5.80;1.00
5218;DHT22;26539;51.064;6.346;2022-12-07T08:08:56;5.80;1.00
5218;DHT22;26539;51.064;6.346;2022-12-07T08:11:23;5.90;1.00
5218;DHT22;26539;51.064;6.346;2022-12-07T08:13:49;6.00;1.00
5218;DHT22;26539;51.064;6.346;2022-12-07T08:16:14;6.00;1.00
5218;DHT22;26539;51.064;6.346;2022-12-07T08:18:40;6.10;1.00
5218;DHT22;26539;51.064;6.346;2022-12-07T08:21:08;6.20;1.00
5218;DHT22;26539;51.064;6.346;2022-12-07T08:23:35;6.30;1.00
5218;DHT22;26539;51.064;6.346;2022-12-07T08:26:05;6.40;99.90
5218;DHT22;26539;51.064;6.346;2022-12-07T08:28:31;6.40;99.90
5218;DHT22;26539;51.064;6.346;2022-12-07T08:31:08;6.40;99.90
5218;DHT22;26539;51.064;6.346;2022-12-07T08:33:34;6.50;99.90
5218;DHT22;26539;51.064;6.346;2022-12-07T08:36:02;6.80;99.90
5218;DHT22;26539;51.064;6.346;2022-12-07T08:38:28;6.90;99.90
5218;DHT22;26539;51.064;6.346;2022-12-07T08:40:55;7.10;99.90
5218;DHT22;26539;51.064;6.346;2022-12-07T08:43:21;7.20;99.90
5218;DHT22;26539;51.064;6.346;2022-12-07T08:45:48;7.70;42.10
5218;DHT22;26539;51.064;6.346;2022-12-07T08:48:16;8.10;1.00
5218;DHT22;26539;51.064;6.346;2022-12-07T08:50:47;8.40;99.90
5218;DHT22;26539;51.064;6.346;2022-12-07T08:53:13;8.80;1.00
5218;DHT22;26539;51.064;6.346;2022-12-07T08:55:39;9.20;99.90
5218;DHT22;26539;51.064;6.346;2022-12-07T08:58:04;9.50;34.60
5218;DHT22;26539;51.064;6.346;2022-12-07T09:00:30;9.70;99.90
5218;DHT22;26539;51.064;6.346;2022-12-07T09:02:55;9.70;1.00
5218;DHT22;26539;51.064;6.346;2022-12-07T09:05:21;9.60;99.90
5218;DHT22;26539;51.064;6.346;2022-12-07T09:07:51;9.50;68.00
5218;DHT22;26539;51.064;6.346;2022-12-07T09:10:17;9.50;1.00
5218;DHT22;26539;51.064;6.346;2022-12-07T09:12:43;9.50;1.00
5218;DHT22;26539;51.064;6.346;2022-12-07T09:15:09;9.50;1.00
5218;DHT22;26539;51.064;6.346;2022-12-07T09:17:35;9.60;99.90
5218;DHT22;26539;51.064;6.346;2022-12-07T09:20:02;9.70;99.90
5218;DHT22;26539;51.064;6.346;2022-12-07T09:22:30;9.60;99.90
5218;DHT22;26539;51.064;6.346;2022-12-07T09:24:57;9.50;99.90
5218;DHT22;26539;51.064;6.346;2022-12-07T09:27:24;9.40;99.90
5218;DHT22;26539;51.064;6.346;2022-12-07T09:29:49;9.30;99.90
5218;DHT22;26539;51.064;6.346;2022-12-07T09:32:15;9.10;99.90
5218;DHT22;26539;51.064;6.346;2022-12-07T09:34:40;9.00;99.90
5218;DHT22;26539;51.064;6.346;2022-12-07T09:37:06;9.00;1.00
5218;DHT22;26539;51.064;6.346;2022-12-07T09:39:32;9.10;1.00
5218;DHT22;26539;51.064;6.346;2022-12-07T09:41:59;9.40;99.90
5218;DHT22;26539;51.064;6.346;2022-12-07T09:44:26;9.60;99.90
5218;DHT22;26539;51.064;6.346;2022-12-07T09:46:53;9.80;99.90
5218;DHT22;26539;51.064;6.346;2022-12-07T09:49:21;10.00;1.00
5218;DHT22;26539;51.064;6.346;2022-12-07T09:51:48;10.10;1.00
5218;DHT22;26539;51.064;6.346;2022-12-07T09:54:24;10.20;1.00
5218;DHT22;26539;51.064;6.346;2022-12-07T09:56:50;10.20;99.90
5218;DHT22;26539;51.064;6.346;2022-12-07T09:59:18;10.20;99.90
5218;DHT22;26539;51.064;6.346;2022-12-07T10:01:49;10.20;99.90
5218;DHT22;26539;51.064;6.346;2022-12-07T10:04:23;10.30;99.90
5218;DHT22;26539;51.064;6.346;2022-12-07T10:06:50;10.40;99.90
5218;DHT22;26539;51.064;6.346;2022-12-07T10:09:21;10.40;99.90
5218;DHT22;26539;51.064;6.346;2022-12-07T10:12:06;10.20;99.90
5218;DHT22;26539;51.064;6.346;2022-12-07T10:14:36;9.80;99.90
5218;DHT22;26539;51.064;6.346;2022-12-07T10:17:02;9.60;99.90
5218;DHT22;26539;51.064;6.346;2022-12-07T10:19:32;9.40;99.90
5218;DHT22;26539;51.064;6.346;2022-12-07T10:22:11;9.40;99.90
5218;DHT22;26539;51.064;6.346;2022-12-07T10:24:40;9.40;1.00
5218;DHT22;26539;51.064;6.346;2022-12-07T10:27:31;9.40;1.00
5218;DHT22;26539;51.064;6.346;2022-12-07T10:29:58;9.50;1.00
5218;DHT22;26539;51.064;6.346;2022-12-07T10:32:30;9.50;1.00
5218;DHT22;26539;51.064;6.346;2022-12-07T10:35:25;9.50;1.00
5218;DHT22;26539;51.064;6.346;2022-12-07T10:37:56;9.80;1.00
5218;DHT22;26539;51.064;6.346;2022-12-07T10:40:32;10.00;99.90
5218;DHT22;26539;51.064;6.346;2022-12-07T10:46:13;10.70;99.90
5218;DHT22;26539;51.064;6.346;2022-12-07T10:49:15;11.10;1.00
5218;DHT22;26539;51.064;6.346;2022-12-07T10:51:56;11.40;1.00
5218;DHT22;26539;51.064;6.346;2022-12-07T11:00:23;12.60;1.00
5218;DHT22;26539;51.064;6.346;2022-12-07T11:03:14;12.90;1.00
5218;DHT22;26539;51.064;6.346;2022-12-07T11:09:00;12.70;99.90
5218;DHT22;26539;51.064;6.346;2022-12-07T11:16:55;12.40;99.90
5218;DHT22;26539;51.064;6.346;2022-12-07T11:19:47;12.50;99.90
5218;DHT22;26539;51.064;6.346;2022-12-07T11:22:47;12.60;99.90
5218;DHT22;26539;51.064;6.346;2022-12-07T11:25:23;13.10;99.90
5218;DHT22;26539;51.064;6.346;2022-12-07T11:30:57;12.60;99.90
5218;DHT22;26539;51.064;6.346;2022-12-07T11:33:46;12.20;99.90
5218;DHT22;26539;51.064;6.346;2022-12-07T11:39:33;11.70;99.90
5218;DHT22;26539;51.064;6.346;2022-12-07T11:42:26;11.60;99.90
5218;DHT22;26539;51.064;6.346;2022-12-07T11:44:56;11.90;99.90
5218;DHT22;26539;51.064;6.346;2022-12-07T11:47:51;12.50;99.90
5218;DHT22;26539;51.064;6.346;2022-12-07T11:50:36;12.70;99.90
5218;DHT22;26539;51.064;6.346;2022-12-07T11:59:02;12.60;99.90
5218;DHT22;26539;51.064;6.346;2022-12-07T12:06:36;12.50;99.90
5218;DHT22;26539;51.064;6.346;2022-12-07T12:09:09;12.30;99.90
5218;DHT22;26539;51.064;6.346;2022-12-07T12:15:23;11.80;99.90
5218;DHT22;26539;51.064;6.346;2022-12-07T12:23:20;11.10;99.90
5218;DHT22;26539;51.064;6.346;2022-12-07T12:25:52;11.00;99.90
5218;DHT22;26539;51.064;6.346;2022-12-07T12:33:53;10.70;1.00
5218;DHT22;26539;51.064;6.346;2022-12-07T12:37:07;10.80;1.00
5218;DHT22;26539;51.064;6.346;2022-12-07T12:46:58;10.80;1.00
5218;DHT22;26539;51.064;6.346;2022-12-07T12:52:00;10.50;1.00
5218;DHT22;26539;51.064;6.346;2022-12-07T12:54:33;10.40;1.00
5218;DHT22;26539;51.064;6.346;2022-12-07T12:57:20;10.30;1.00
5218;DHT22;26539;51.064;6.346;2022-12-07T13:02:37;10.40;1.00
5218;DHT22;26539;51.064;6.346;2022-12-07T13:10:36;10.60;1.00
5218;DHT22;26539;51.064;6.346;2022-12-07T13:15:32;10.70;1.00
5218;DHT22;26539;51.064;6.346;2022-12-07T13:18:00;10.50;1.00
5218;DHT22;26539;51.064;6.346;2022-12-07T13:23:06;10.20;1.00
5218;DHT22;26539;51.064;6.346;2022-12-07T13:25:41;10.10;1.00
5218;DHT22;26539;51.064;6.346;2022-12-07T13:28:13;10.10;1.00
5218;DHT22;26539;51.064;6.346;2022-12-07T13:33:35;9.80;1.00
5218;DHT22;26539;51.064;6.346;2022-12-07T13:36:00;9.70;1.00
5218;DHT22;26539;51.064;6.346;2022-12-07T13:38:32;9.70;1.00
5218;DHT22;26539;51.064;6.346;2022-12-07T13:41:10;9.60;1.00
5218;DHT22;26539;51.064;6.346;2022-12-07T13:44:10;9.50;1.00
5218;DHT22;26539;51.064;6.346;2022-12-07T13:49:25;9.40;8.50
5218;DHT22;26539;51.064;6.346;2022-12-07T13:51:51;9.40;70.40
5218;DHT22;26539;51.064;6.346;2022-12-07T13:54:18;9.40;99.90
5218;DHT22;26539;51.064;6.346;2022-12-07T13:56:48;9.30;99.90
5218;DHT22;26539;51.064;6.346;2022-12-07T13:59:23;9.20;99.90
5218;DHT22;26539;51.064;6.346;2022-12-07T14:01:51;9.10;99.90
5218;DHT22;26539;51.064;6.346;2022-12-07T14:04:18;9.10;99.90
5218;DHT22;26539;51.064;6.346;2022-12-07T14:06:48;9.00;99.90
5218;DHT22;26539;51.064;6.346;2022-12-07T14:09:26;8.90;1.00
5218;DHT22;26539;51.064;6.346;2022-12-07T14:11:53;8.80;1.00
5218;DHT22;26539;51.064;6.346;2022-12-07T14:14:27;8.80;61.90
5218;DHT22;26539;51.064;6.346;2022-12-07T14:17:20;8.80;99.90
5218;DHT22;26539;51.064;6.346;2022-12-07T14:19:58;8.70;1.00
5218;DHT22;26539;51.064;6.346;2022-12-07T14:24:59;8.50;1.00
5218;DHT22;26539;51.064;6.346;2022-12-07T14:27:33;8.40;1.00
5218;DHT22;26539;51.064;6.346;2022-12-07T14:30:03;8.30;1.00
5218;DHT22;26539;51.064;6.346;2022-12-07T14:32:30;8.20;1.00
5218;DHT22;26539;51.064;6.346;2022-12-07T14:35:02;8.20;1.00
5218;DHT22;26539;51.064;6.346;2022-12-07T14:37:29;8.10;1.00
5218;DHT22;26539;51.064;6.346;2022-12-07T14:39:55;8.00;1.00
5218;DHT22;26539;51.064;6.346;2022-12-07T14:42:23;7.90;1.00
5218;DHT22;26539;51.064;6.346;2022-12-07T14:44:49;7.80;99.90
5218;DHT22;26539;51.064;6.346;2022-12-07T14:47:15;7.80;99.90
5218;DHT22;26539;51.064;6.346;2022-12-07T14:49:40;7.70;99.90
5218;DHT22;26539;51.064;6.346;2022-12-07T14:52:12;7.70;1.00
5218;DHT22;26539;51.064;6.346;2022-12-07T14:54:38;7.60;1.00
5218;DHT22;26539;51.064;6.346;2022-12-07T14:57:04;7.60;1.00
5218;DHT22;26539;51.064;6.346;2022-12-07T14:59:29;7.50;1.00
5218;DHT22;26539;51.064;6.346;2022-12-07T15:01:55;7.50;1.00
5218;DHT22;26539;51.064;6.346;2022-12-07T15:04:20;7.40;99.90
5218;DHT22;26539;51.064;6.346;2022-12-07T15:06:57;7.40;99.90
5218;DHT22;26539;51.064;6.346;2022-12-07T15:09:23;7.30;99.90
5218;DHT22;26539;51.064;6.346;2022-12-07T15:11:48;7.30;99.90
5218;DHT22;26539;51.064;6.346;2022-12-07T15:14:14;7.30;1.00
5218;DHT22;26539;51.064;6.346;2022-12-07T15:16:41;7.20;1.00
5218;DHT22;26539;51.064;6.346;2022-12-07T15:19:25;7.20;1.00
5218;DHT22;26539;51.064;6.346;2022-12-07T15:21:52;7.20;1.00
5218;DHT22;26539;51.064;6.346;2022-12-07T15:24:18;7.10;1.00
5218;DHT22;26539;51.064;6.346;2022-12-07T15:26:44;7.00;1.00
5218;DHT22;26539;51.064;6.346;2022-12-07T15:29:10;7.00;1.00
5218;DHT22;26539;51.064;6.346;2022-12-07T15:31:37;6.90;99.90
5218;DHT22;26539;51.064;6.346;2022-12-07T15:34:03;6.90;99.90
5218;DHT22;26539;51.064;6.346;2022-12-07T15:36:30;6.80;1.00
5218;DHT22;26539;51.064;6.346;2022-12-07T15:38:57;6.70;99.90
5218;DHT22;26539;51.064;6.346;2022-12-07T15:41:23;6.70;1.00
5218;DHT22;26539;51.064;6.346;2022-12-07T15:43:49;6.70;99.90
5218;DHT22;26539;51.064;6.346;2022-12-07T15:46:35;6.70;1.00
5218;DHT22;26539;51.064;6.346;2022-12-07T15:49:02;6.70;1.00
5218;DHT22;26539;51.064;6.346;2022-12-07T15:51:28;6.70;99.90
5218;DHT22;26539;51.064;6.346;2022-12-07T15:53:54;6.70;99.90
5218;DHT22;26539;51.064;6.346;2022-12-07T15:56:20;6.70;99.90
5218;DHT22;26539;51.064;6.346;2022-12-07T15:58:45;6.70;99.90
5218;DHT22;26539;51.064;6.346;2022-12-07T16:01:19;6.70;99.90
5218;DHT22;26539;51.064;6.346;2022-12-07T16:03:46;6.60;99.90
5218;DHT22;26539;51.064;6.346;2022-12-07T16:06:15;6.60;99.90
5218;DHT22;26539;51.064;6.346;2022-12-07T16:08:48;6.60;99.90
5218;DHT22;26539;51.064;6.346;2022-12-07T16:11:22;6.60;99.90
5218;DHT22;26539;51.064;6.346;2022-12-07T16:13:48;6.60;99.90
5218;DHT22;26539;51.064;6.346;2022-12-07T16:16:22;6.60;99.90
5218;DHT22;26539;51.064;6.346;2022-12-07T16:18:51;6.60;1.00
5218;DHT22;26539;51.064;6.346;2022-12-07T16:21:17;6.60;1.00
5218;DHT22;26539;51.064;6.346;2022-12-07T16:23:43;6.60;1.00
5218;DHT22;26539;51.064;6.346;2022-12-07T16:26:15;6.60;1.00
5218;DHT22;26539;51.064;6.346;2022-12-07T16:28:41;6.60;1.00
5218;DHT22;26539;51.064;6.346;2022-12-07T16:31:13;6.60;1.00
5218;DHT22;26539;51.064;6.346;2022-12-07T16:33:39;6.60;1.00
5218;DHT22;26539;51.064;6.346;2022-12-07T16:36:07;6.60;1.00
5218;DHT22;26539;51.064;6.346;2022-12-07T16:38:33;6.50;1.00
5218;DHT22;26539;51.064;6.346;2022-12-07T16:40:59;6.50;1.00
5218;DHT22;26539;51.064;6.346;2022-12-07T16:43:24;6.40;1.00
5218;DHT22;26539;51.064;6.346;2022-12-07T16:45:50;6.40;1.00
5218;DHT22;26539;51.064;6.346;2022-12-07T16:48:16;6.40;1.00
5218;DHT22;26539;51.064;6.346;2022-12-07T16:50:43;6.40;1.00
5218;DHT22;26539;51.064;6.346;2022-12-07T16:53:12;6.40;1.00
5218;DHT22;26539;51.064;6.346;2022-12-07T16:55:39;6.40;1.00
5218;DHT22;26539;51.064;6.346;2022-12-07T16:58:06;6.40;1.00
5218;DHT22;26539;51.064;6.346;2022-12-07T17:00:31;6.40;1.00
5218;DHT22;26539;51.064;6.346;2022-12-07T17:02:57;6.40;1.00
5218;DHT22;26539;51.064;6.346;2022-12-07T17:05:23;6.40;1.00
5218;DHT22;26539;51.064;6.346;2022-12-07T17:07:50;6.40;1.00
5218;DHT22;26539;51.064;6.346;2022-12-07T17:10:16;6.40;1.00
5218;DHT22;26539;51.064;6.346;2022-12-07T17:12:41;6.40;1.00
5218;DHT22;26539;51.064;6.346;2022-12-07T17:15:08;6.40;1.00
5218;DHT22;26539;51.064;6.346;2022-12-07T17:17:44;6.40;1.00
5218;DHT22;26539;51.064;6.346;2022-12-07T17:20:11;6.40;1.00
5218;DHT22;26539;51.064;6.346;2022-12-07T17:22:37;6.40;1.00
5218;DHT22;26539;51.064;6.346;2022-12-07T17:25:03;6.40;1.00
5218;DHT22;26539;51.064;6.346;2022-12-07T17:27:29;6.30;1.00
5218;DHT22;26539;51.064;6.346;2022-12-07T17:29:54;6.30;1.00
5218;DHT22;26539;51.064;6.346;2022-12-07T17:32:20;6.30;1.00
5218;DHT22;26539;51.064;6.346;2022-12-07T17:34:45;6.20;1.00
5218;DHT22;26539;51.064;6.346;2022-12-07T17:37:11;6.20;7.30
5218;DHT22;26539;51.064;6.346;2022-12-07T17:39:37;6.20;46.50
5218;DHT22;26539;51.064;6.346;2022-12-07T17:42:02;6.10;96.00
5218;DHT22;26539;51.064;6.346;2022-12-07T17:44:46;6.10;99.90
5218;DHT22;26539;51.064;6.346;2022-12-07T17:47:12;6.10;99.90
5218;DHT22;26539;51.064;6.346;2022-12-07T17:49:40;6.10;99.90
5218;DHT22;26539;51.064;6.346;2022-12-07T17:52:06;6.10;99.90
5218;DHT22;26539;51.064;6.346;2022-12-07T17:54:50;6.10;99.90
5218;DHT22;26539;51.064;6.346;2022-12-07T17:57:16;6.10;99.90
5218;DHT22;26539;51.064;6.346;2022-12-07T17:59:42;6.10;99.90
5218;DHT22;26539;51.064;6.346;2022-12-07T18:02:09;6.10;99.90
5218;DHT22;26539;51.064;6.346;2022-12-07T18:04:34;6.10;99.90
5218;DHT22;26539;51.064;6.346;2022-12-07T18:07:00;6.10;99.90
5218;DHT22;26539;51.064;6.346;2022-12-07T18:09:25;6.10;99.90
5218;DHT22;26539;51.064;6.346;2022-12-07T18:11:51;6.10;99.90
5218;DHT22;26539;51.064;6.346;2022-12-07T18:14:17;6.10;99.90
5218;DHT22;26539;51.064;6.346;2022-12-07T18:16:43;6.10;99.90
5218;DHT22;26539;51.064;6.346;2022-12-07T18:19:09;6.10;99.90